Time;durP1;ratioP1;P1;durP2;ratioP2;P2;SDS_P1;SDS_P2;PMS_P1;PMS_P2;Temp;Humidity;BMP_temperature;BMP_pressure;BME280_temperature;BME280_humidity;BME280_pressure;Samples;Min_cycle;Max_cycle;Signal;HPM_P1;HPM_P2
2023/01/09 00:00:40;;;;;;;14.88;11.45;;;3.70;99.90;;;;;;5015547;28;20188;-75
2023/01/09 00:03:05;;;;;;;15.70;12.23;;;3.70;99.90;;;;;;5015002;28;20197;-75
2023/01/09 00:05:31;;;;;;;16.55;12.05;;;3.70;99.90;;;;;;5013993;28;20251;-75
2023/01/09 00:07:56;;;;;;;14.75;11.68;;;3.70;99.90;;;;;;5013569;28;20300;-75
2023/01/09 00:10:22;;;;;;;13.02;10.25;;;3.60;99.90;;;;;;5013499;28;20683;-75
2023/01/09 00:12:48;;;;;;;12.82;10.57;;;3.70;99.90;;;;;;5011797;28;20201;-75
2023/01/09 00:15:14;;;;;;;13.73;11.43;;;3.70;99.90;;;;;;5014723;28;20208;-75
2023/01/09 00:17:39;;;;;;;12.98;11.57;;;3.70;99.90;;;;;;5015135;28;20182;-76
2023/01/09 00:20:08;;;;;;;12.73;10.80;;;3.70;99.90;;;;;;5013128;28;20185;-76
2023/01/09 00:22:34;;;;;;;12.75;10.68;;;3.70;99.90;;;;;;5009485;28;20234;-75
2023/01/09 00:24:59;;;;;;;12.68;10.60;;;3.60;99.90;;;;;;5010332;28;20200;-75
2023/01/09 00:27:25;;;;;;;12.70;11.02;;;3.60;99.90;;;;;;5016489;28;20644;-75
2023/01/09 00:29:51;;;;;;;12.82;10.70;;;3.60;99.90;;;;;;5011726;28;20185;-75
2023/01/09 00:32:16;;;;;;;12.00;10.70;;;3.60;99.90;;;;;;5015489;28;20211;-75
2023/01/09 00:34:42;;;;;;;11.48;10.27;;;3.60;99.90;;;;;;5017925;28;20181;-74
2023/01/09 00:37:10;;;;;;;12.95;10.50;;;3.60;99.90;;;;;;5018352;28;20182;-75
2023/01/09 00:39:40;;;;;;;11.70;10.50;;;3.60;99.90;;;;;;5022673;28;20179;-75
2023/01/09 00:42:08;;;;;;;11.57;10.38;;;3.70;99.90;;;;;;5024692;28;20204;-76
2023/01/09 00:44:42;;;;;;;12.80;11.48;;;3.60;99.90;;;;;;5009321;28;20174;-75
2023/01/09 00:47:22;;;;;;;15.77;10.18;;;3.60;99.90;;;;;;5012539;28;20201;-75
2023/01/09 00:49:49;;;;;;;10.73;9.60;;;3.70;99.90;;;;;;5018995;28;20165;-76
2023/01/09 00:52:15;;;;;;;12.30;9.95;;;3.70;99.90;;;;;;5002185;28;20301;-75
2023/01/09 00:54:42;;;;;;;11.45;9.90;;;3.80;99.90;;;;;;5014089;28;20263;-75
2023/01/09 00:57:10;;;;;;;12.75;10.00;;;3.80;99.90;;;;;;5019641;28;20181;-75
2023/01/09 00:59:36;;;;;;;12.00;10.35;;;3.80;99.90;;;;;;5021091;28;20168;-75
2023/01/09 01:02:02;;;;;;;11.25;10.05;;;3.90;99.90;;;;;;5010698;28;20201;-75
2023/01/09 01:09:55;;;;;;;12.45;10.60;;;3.90;99.90;;;;;;5012438;28;20223;-75
2023/01/09 01:12:21;;;;;;;13.18;11.20;;;3.80;99.90;;;;;;5014284;28;20217;-74
2023/01/09 01:14:46;;;;;;;13.15;10.65;;;3.70;99.90;;;;;;5019161;28;20215;-74
2023/01/09 01:17:12;;;;;;;12.25;10.90;;;3.70;99.90;;;;;;5014753;28;20560;-75
2023/01/09 01:19:38;;;;;;;15.65;10.57;;;3.60;99.90;;;;;;5014090;28;20174;-74
2023/01/09 01:22:03;;;;;;;11.68;10.07;;;3.60;99.90;;;;;;5012598;28;20672;-74
2023/01/09 01:24:29;;;;;;;13.40;10.80;;;3.60;99.90;;;;;;5011469;28;20177;-74
2023/01/09 01:26:55;;;;;;;11.63;9.85;;;3.70;99.90;;;;;;5010915;28;20573;-75
2023/01/09 01:29:20;;;;;;;11.38;10.18;;;3.70;99.90;;;;;;5015081;28;20190;-75
2023/01/09 01:31:46;;;;;;;12.82;10.88;;;3.80;99.90;;;;;;5011753;28;20205;-74
2023/01/09 01:34:11;;;;;;;14.05;11.45;;;3.90;99.90;;;;;;5015445;28;20188;-74
2023/01/09 01:36:37;;;;;;;14.55;11.07;;;3.80;99.90;;;;;;5010616;28;20201;-74
2023/01/09 01:39:03;;;;;;;12.80;10.18;;;3.80;99.90;;;;;;5013230;28;20271;-74
2023/01/09 01:41:28;;;;;;;15.10;10.98;;;3.80;99.90;;;;;;5010011;28;20181;-74
2023/01/09 01:44:01;;;;;;;13.77;11.27;;;3.80;99.90;;;;;;5011720;28;20235;-74
2023/01/09 01:46:30;;;;;;;15.40;11.23;;;3.80;99.90;;;;;;5009064;28;20177;-74
2023/01/09 01:49:04;;;;;;;11.93;9.93;;;3.80;99.90;;;;;;5015787;28;20188;-74
2023/01/09 01:51:34;;;;;;;13.40;11.38;;;3.90;99.90;;;;;;5011542;28;20259;-74
2023/01/09 01:54:05;;;;;;;13.52;11.00;;;3.90;99.90;;;;;;5016470;28;20201;-73
2023/01/09 01:56:33;;;;;;;15.77;12.15;;;3.80;99.90;;;;;;5009227;28;20212;-73
2023/01/09 01:59:04;;;;;;;14.38;11.13;;;3.70;99.90;;;;;;5009122;28;20189;-73
2023/01/09 02:01:31;;;;;;;13.63;10.50;;;3.70;99.90;;;;;;5013367;28;20667;-73
2023/01/09 02:03:59;;;;;;;16.17;11.88;;;3.70;99.90;;;;;;5010147;28;20212;-73
2023/01/09 02:06:25;;;;;;;14.43;10.80;;;3.70;99.90;;;;;;5015660;28;20189;-73
2023/01/09 02:08:51;;;;;;;15.13;12.32;;;3.80;99.90;;;;;;5020996;28;20524;-73
2023/01/09 02:11:19;;;;;;;14.70;11.73;;;3.80;99.90;;;;;;5016931;28;20200;-73
2023/01/09 02:13:45;;;;;;;17.35;12.40;;;3.80;99.90;;;;;;5015804;28;20213;-74
2023/01/09 02:16:32;;;;;;;15.88;11.60;;;3.70;99.90;;;;;;5017697;28;20205;-73
2023/01/09 02:19:23;;;;;;;15.07;12.30;;;3.60;99.90;;;;;;5017687;28;20188;-74
2023/01/09 02:22:17;;;;;;;15.27;11.27;;;3.70;99.90;;;;;;5010523;28;20268;-74
2023/01/09 02:25:04;;;;;;;16.65;12.18;;;3.70;99.90;;;;;;5017585;28;20261;-73
2023/01/09 02:27:50;;;;;;;15.85;11.75;;;3.60;99.90;;;;;;5016674;28;20232;-73
2023/01/09 02:30:22;;;;;;;16.80;12.82;;;3.50;99.90;;;;;;5013914;28;20652;-73
2023/01/09 02:33:09;;;;;;;15.35;12.05;;;3.60;99.90;;;;;;5017897;28;20236;-74
2023/01/09 02:35:49;;;;;;;15.48;11.85;;;3.70;99.90;;;;;;5015821;28;20208;-73
2023/01/09 02:38:40;;;;;;;13.68;11.30;;;3.70;99.90;;;;;;5018109;28;20202;-74
2023/01/09 02:41:13;;;;;;;16.08;12.52;;;3.80;99.90;;;;;;5014654;28;20216;-74
2023/01/09 02:43:39;;;;;;;17.58;13.40;;;3.70;99.90;;;;;;5019548;28;20192;-74
2023/01/09 02:46:05;;;;;;;17.35;12.73;;;3.60;99.90;;;;;;5017173;28;20185;-74
2023/01/09 02:48:31;;;;;;;15.00;12.88;;;3.60;99.90;;;;;;5017061;28;20173;-74
2023/01/09 02:50:56;;;;;;;14.68;12.02;;;3.60;99.90;;;;;;5015026;28;20242;-74
2023/01/09 02:53:51;;;;;;;16.83;13.45;;;3.60;99.90;;;;;;5018916;28;20242;-74
2023/01/09 02:56:20;;;;;;;15.77;12.88;;;3.70;99.90;;;;;;5011664;28;20200;-74
2023/01/09 02:59:13;;;;;;;13.98;12.25;;;3.70;99.90;;;;;;5020610;28;20181;-73
2023/01/09 03:02:12;;;;;;;13.38;11.38;;;3.70;99.90;;;;;;5013544;28;20201;-73
2023/01/09 03:04:49;;;;;;;15.15;12.82;;;3.80;99.90;;;;;;5013504;28;20189;-73
2023/01/09 03:07:44;;;;;;;15.50;11.75;;;3.70;99.90;;;;;;5013701;28;20166;-73
2023/01/09 03:10:22;;;;;;;16.45;12.70;;;3.70;99.90;;;;;;5014806;28;20268;-74
2023/01/09 03:12:52;;;;;;;17.73;12.20;;;3.60;99.90;;;;;;5012101;28;20197;-74
2023/01/09 03:15:20;;;;;;;18.08;13.07;;;3.60;99.90;;;;;;5017836;28;20197;-74
2023/01/09 03:17:49;;;;;;;16.02;12.50;;;3.50;99.90;;;;;;5013239;28;20185;-74
2023/01/09 03:20:20;;;;;;;15.40;12.48;;;3.60;99.90;;;;;;5016227;28;20247;-74
2023/01/09 03:22:57;;;;;;;14.50;12.48;;;3.70;99.90;;;;;;5016509;28;20235;-74
2023/01/09 03:25:23;;;;;;;13.38;11.88;;;3.70;99.90;;;;;;5020877;28;20195;-74
2023/01/09 03:27:59;;;;;;;15.73;12.02;;;3.70;99.90;;;;;;5015862;28;20180;-74
2023/01/09 03:30:27;;;;;;;14.75;12.30;;;3.80;99.90;;;;;;5017927;28;20574;-74
2023/01/09 03:32:54;;;;;;;18.92;13.43;;;3.70;99.90;;;;;;5012552;28;20307;-74
2023/01/09 03:35:20;;;;;;;14.15;12.65;;;3.70;99.90;;;;;;5017918;28;20244;-74
2023/01/09 03:37:46;;;;;;;17.15;13.35;;;3.60;99.90;;;;;;5013128;28;20220;-74
2023/01/09 03:40:11;;;;;;;17.48;12.85;;;3.50;99.90;;;;;;5014545;28;20189;-74
2023/01/09 03:42:37;;;;;;;15.05;13.20;;;3.60;99.90;;;;;;5014659;28;20641;-74
2023/01/09 03:45:03;;;;;;;14.10;11.90;;;3.60;99.90;;;;;;5025447;28;20184;-73
2023/01/09 03:47:29;;;;;;;14.05;12.02;;;3.60;99.90;;;;;;5022723;28;20549;-73
2023/01/09 03:49:55;;;;;;;14.40;11.57;;;3.70;99.90;;;;;;5015687;28;20211;-74
2023/01/09 03:52:20;;;;;;;15.27;12.35;;;3.70;99.90;;;;;;5015209;28;20608;-74
2023/01/09 03:54:46;;;;;;;14.70;12.00;;;3.70;99.90;;;;;;5010816;28;20177;-74
2023/01/09 03:57:11;;;;;;;16.33;13.45;;;3.70;99.90;;;;;;5013749;28;20251;-74
2023/01/09 03:59:38;;;;;;;15.90;12.30;;;3.60;99.90;;;;;;5014170;28;20185;-75
2023/01/09 04:02:03;;;;;;;16.20;12.73;;;3.60;99.90;;;;;;5018205;28;20201;-74
2023/01/09 04:04:29;;;;;;;15.75;12.63;;;3.60;99.90;;;;;;5011823;28;20196;-74
2023/01/09 04:06:54;;;;;;;15.90;12.65;;;3.60;99.90;;;;;;5015016;28;20193;-74
2023/01/09 04:09:20;;;;;;;15.80;12.73;;;3.60;99.90;;;;;;5020560;28;20219;-74
2023/01/09 04:11:45;;;;;;;15.25;12.10;;;3.70;99.90;;;;;;5019248;28;20223;-74
2023/01/09 04:14:11;;;;;;;15.32;12.38;;;3.70;99.90;;;;;;5018877;28;20189;-74
2023/01/09 04:16:37;;;;;;;12.45;11.02;;;3.70;99.90;;;;;;5014226;28;20205;-74
2023/01/09 04:19:02;;;;;;;16.15;11.20;;;3.80;99.90;;;;;;5015334;28;20632;-74
2023/01/09 04:21:28;;;;;;;14.68;13.07;;;3.80;99.90;;;;;;5010038;28;20181;-74
2023/01/09 04:23:53;;;;;;;15.80;12.75;;;3.80;99.90;;;;;;5012586;28;20224;-74
2023/01/09 04:26:19;;;;;;;15.35;13.35;;;3.80;99.90;;;;;;5012312;28;20216;-74
2023/01/09 04:28:45;;;;;;;16.38;12.70;;;3.70;99.90;;;;;;5014840;28;20208;-74
2023/01/09 04:31:10;;;;;;;15.07;12.15;;;3.70;99.90;;;;;;5020500;28;20247;-73
2023/01/09 04:33:36;;;;;;;16.83;12.43;;;3.70;99.90;;;;;;5010596;28;20217;-74
2023/01/09 04:36:01;;;;;;;19.00;12.57;;;3.70;99.90;;;;;;5009863;28;20287;-73
2023/01/09 04:38:27;;;;;;;17.60;13.13;;;3.70;99.90;;;;;;5017124;28;20260;-74
2023/01/09 04:40:53;;;;;;;16.20;13.10;;;3.70;99.90;;;;;;5016715;28;20800;-74
2023/01/09 04:43:18;;;;;;;15.57;12.88;;;3.70;99.90;;;;;;5015190;28;20320;-74
2023/01/09 04:45:44;;;;;;;16.08;13.35;;;3.60;99.90;;;;;;5014383;28;20196;-74
2023/01/09 04:48:10;;;;;;;16.33;12.85;;;3.70;99.90;;;;;;5011564;28;20243;-73
2023/01/09 04:50:35;;;;;;;14.68;11.98;;;3.60;99.90;;;;;;5011744;28;20177;-74
2023/01/09 04:53:01;;;;;;;14.43;11.60;;;3.60;99.90;;;;;;5014854;28;20209;-73
2023/01/09 04:55:26;;;;;;;16.25;12.35;;;3.60;99.90;;;;;;5009317;28;20198;-74
2023/01/09 04:57:52;;;;;;;15.13;12.35;;;3.70;99.90;;;;;;5019464;28;20187;-74
2023/01/09 05:00:18;;;;;;;14.07;10.88;;;3.70;99.90;;;;;;5012163;28;20183;-74
2023/01/09 05:02:43;;;;;;;15.13;11.80;;;3.70;99.90;;;;;;5020796;28;20324;-74
2023/01/09 05:05:10;;;;;;;14.35;12.02;;;3.80;99.90;;;;;;5016442;28;20714;-74
2023/01/09 05:07:36;;;;;;;15.98;12.05;;;3.90;99.90;;;;;;5016751;28;20177;-74
2023/01/09 05:10:02;;;;;;;16.80;13.07;;;3.90;99.90;;;;;;5015015;28;20176;-74
2023/01/09 05:12:28;;;;;;;14.50;12.35;;;3.80;99.90;;;;;;5011408;28;20218;-74
2023/01/09 05:14:54;;;;;;;13.18;11.77;;;3.70;99.90;;;;;;5014306;28;20185;-74
2023/01/09 05:17:19;;;;;;;17.45;12.55;;;3.70;99.90;;;;;;5015596;28;20195;-74
2023/01/09 05:19:45;;;;;;;13.90;11.10;;;3.80;99.90;;;;;;5017080;28;20184;-74
2023/01/09 05:22:12;;;;;;;14.75;12.00;;;3.80;99.90;;;;;;5017925;28;20241;-74
2023/01/09 05:24:37;;;;;;;17.05;13.45;;;3.80;99.90;;;;;;5011403;28;20735;-74
2023/01/09 05:27:03;;;;;;;15.23;12.55;;;3.80;99.90;;;;;;5017833;28;20299;-74
2023/01/09 05:29:28;;;;;;;15.25;12.65;;;3.80;99.90;;;;;;5015754;28;20565;-73
2023/01/09 05:31:54;;;;;;;17.05;13.60;;;3.70;99.90;;;;;;5013942;28;20208;-74
2023/01/09 05:34:20;;;;;;;14.85;12.15;;;3.70;99.90;;;;;;5008599;28;20189;-74
2023/01/09 05:36:46;;;;;;;16.17;12.68;;;3.80;99.90;;;;;;5016577;28;20240;-73
2023/01/09 05:39:12;;;;;;;15.45;12.23;;;3.70;99.90;;;;;;5017017;28;20652;-73
2023/01/09 05:41:37;;;;;;;18.13;12.75;;;3.90;99.90;;;;;;5014774;28;20223;-74
2023/01/09 05:44:03;;;;;;;15.15;11.40;;;3.80;99.90;;;;;;5014990;28;20196;-73
2023/01/09 05:46:30;;;;;;;15.15;12.20;;;3.80;99.90;;;;;;5016306;28;20296;-73
2023/01/09 05:48:55;;;;;;;14.35;11.73;;;3.80;99.90;;;;;;5013981;28;20580;-73
2023/01/09 05:51:21;;;;;;;17.33;13.07;;;3.90;99.90;;;;;;5017757;28;20189;-75
2023/01/09 05:53:48;;;;;;;15.13;12.38;;;4.00;99.90;;;;;;5017043;28;20192;-74
2023/01/09 05:56:13;;;;;;;18.27;13.05;;;4.00;99.90;;;;;;5015068;28;20217;-74
2023/01/09 05:58:39;;;;;;;16.95;13.05;;;4.00;99.90;;;;;;5016271;28;20189;-73
2023/01/09 06:01:05;;;;;;;16.17;12.18;;;3.90;99.90;;;;;;5016549;28;20585;-72
2023/01/09 06:03:31;;;;;;;15.77;12.50;;;3.90;99.90;;;;;;5017143;28;20255;-74
2023/01/09 06:05:57;;;;;;;13.82;12.15;;;4.00;99.90;;;;;;5015857;28;20200;-73
2023/01/09 06:08:22;;;;;;;16.05;12.95;;;3.90;99.90;;;;;;5014564;28;20199;-74
2023/01/09 06:10:48;;;;;;;16.92;13.27;;;3.90;99.90;;;;;;5019462;28;20652;-73
2023/01/09 06:13:14;;;;;;;15.07;13.13;;;3.90;99.90;;;;;;5016403;28;20232;-73
2023/01/09 06:15:40;;;;;;;18.25;13.38;;;3.90;99.90;;;;;;5013515;28;20209;-73
2023/01/09 06:18:05;;;;;;;15.10;13.02;;;4.10;99.90;;;;;;5017160;28;20228;-73
2023/01/09 06:20:31;;;;;;;17.15;13.55;;;4.20;99.90;;;;;;5011446;28;20694;-74
2023/01/09 06:22:57;;;;;;;16.83;13.25;;;4.00;99.90;;;;;;5015178;28;20240;-75
2023/01/09 06:25:23;;;;;;;12.98;11.35;;;3.90;99.90;;;;;;5011614;28;20209;-74
2023/01/09 06:27:50;;;;;;;17.50;13.90;;;3.80;99.90;;;;;;5019142;28;20192;-73
2023/01/09 06:30:17;;;;;;;16.58;12.55;;;3.90;99.90;;;;;;5013387;28;20194;-75
2023/01/09 06:32:43;;;;;;;17.27;13.48;;;4.00;99.90;;;;;;5012660;28;20201;-74
2023/01/09 06:35:09;;;;;;;18.65;14.30;;;4.00;99.90;;;;;;5017495;28;20188;-74
2023/01/09 06:37:34;;;;;;;17.23;12.98;;;4.10;99.90;;;;;;5019898;28;20196;-77
2023/01/09 06:40:00;;;;;;;18.23;13.20;;;4.10;99.90;;;;;;5012476;28;20173;-75
2023/01/09 06:42:25;;;;;;;17.50;13.80;;;4.10;99.90;;;;;;5018256;28;20706;-75
2023/01/09 06:44:51;;;;;;;15.82;12.30;;;4.00;99.90;;;;;;5026842;28;20191;-74
2023/01/09 06:47:17;;;;;;;16.38;11.98;;;4.10;99.90;;;;;;5015055;28;20291;-75
2023/01/09 06:49:42;;;;;;;18.08;13.73;;;4.10;99.90;;;;;;5015180;28;20229;-74
2023/01/09 06:52:08;;;;;;;14.73;12.23;;;4.20;99.90;;;;;;5005218;28;20217;-74
2023/01/09 06:54:34;;;;;;;18.45;14.00;;;4.10;99.90;;;;;;5011558;28;20656;-74
2023/01/09 06:56:59;;;;;;;16.70;13.30;;;4.20;99.90;;;;;;5027967;28;20212;-73
2023/01/09 06:59:25;;;;;;;14.52;12.95;;;4.20;99.90;;;;;;5017347;28;20177;-74
2023/01/09 07:01:51;;;;;;;17.08;13.48;;;4.10;99.90;;;;;;5019902;28;20275;-75
2023/01/09 07:04:17;;;;;;;18.10;13.77;;;4.10;99.90;;;;;;5015833;28;20259;-74
2023/01/09 07:06:46;;;;;;;16.15;13.10;;;3.90;99.90;;;;;;5011399;28;20231;-73
2023/01/09 07:09:12;;;;;;;18.25;13.15;;;3.90;99.90;;;;;;5012430;28;20252;-74
2023/01/09 07:11:38;;;;;;;15.18;12.43;;;3.90;99.90;;;;;;5015843;28;20320;-74
2023/01/09 07:14:04;;;;;;;17.00;12.82;;;4.10;99.90;;;;;;5016771;28;20192;-72
2023/01/09 07:16:30;;;;;;;14.95;11.93;;;4.10;99.90;;;;;;5015631;28;20216;-73
2023/01/09 07:18:56;;;;;;;16.50;13.43;;;4.00;99.90;;;;;;5012557;28;20177;-73
2023/01/09 07:21:22;;;;;;;16.17;12.30;;;3.90;99.90;;;;;;5018675;28;20185;-73
2023/01/09 07:23:48;;;;;;;15.13;12.45;;;4.00;99.90;;;;;;5017934;28;20180;-73
2023/01/09 07:26:14;;;;;;;17.08;13.13;;;4.00;99.90;;;;;;5007445;28;20661;-73
2023/01/09 07:28:39;;;;;;;18.10;13.13;;;4.10;99.90;;;;;;5015461;28;20189;-78
2023/01/09 07:31:06;;;;;;;15.77;12.45;;;4.00;99.90;;;;;;5012575;28;20239;-73
2023/01/09 07:33:32;;;;;;;14.85;11.63;;;4.00;99.90;;;;;;5025124;28;20197;-73
2023/01/09 07:35:58;;;;;;;15.52;11.77;;;4.10;99.90;;;;;;5014604;28;20267;-72
2023/01/09 07:38:23;;;;;;;14.13;11.77;;;4.30;99.90;;;;;;5010547;28;20644;-73
2023/01/09 07:40:49;;;;;;;14.90;11.98;;;4.30;99.90;;;;;;5013459;28;20173;-74
2023/01/09 07:43:14;;;;;;;9.93;8.88;;;4.50;99.90;;;;;;5014019;28;20259;-73
2023/01/09 07:45:40;;;;;;;11.68;10.05;;;4.60;99.90;;;;;;5019238;28;20181;-74
2023/01/09 07:48:06;;;;;;;10.38;9.07;;;4.80;99.90;;;;;;5022479;28;20267;-72
2023/01/09 07:50:31;;;;;;;14.00;10.00;;;4.90;99.90;;;;;;5018894;28;20181;-73
2023/01/09 07:52:57;;;;;;;11.13;9.68;;;4.90;99.90;;;;;;5021269;28;20205;-72
2023/01/09 07:55:22;;;;;;;9.93;8.77;;;5.00;99.90;;;;;;5019839;28;20197;-73
2023/01/09 07:57:49;;;;;;;11.52;9.73;;;5.10;99.90;;;;;;5018742;28;20184;-73
2023/01/09 08:00:15;;;;;;;9.98;8.98;;;5.20;99.90;;;;;;5007528;28;20182;-72
2023/01/09 08:02:40;;;;;;;9.00;8.07;;;5.20;99.90;;;;;;5025338;28;20549;-72
2023/01/09 08:05:08;;;;;;;9.23;5.93;;;5.40;99.90;;;;;;5024137;28;20203;-72
2023/01/09 08:07:34;;;;;;;9.55;8.55;;;5.50;99.90;;;;;;5007063;28;20180;-72
2023/01/09 08:09:59;;;;;;;6.45;5.57;;;5.60;99.90;;;;;;5009061;28;20185;-72
2023/01/09 08:12:25;;;;;;;9.30;8.32;;;5.60;99.90;;;;;;5021326;28;20204;-72
2023/01/09 08:14:50;;;;;;;8.63;7.57;;;5.60;99.90;;;;;;5020809;28;20253;-73
2023/01/09 08:17:16;;;;;;;7.95;7.15;;;5.50;99.90;;;;;;5025577;28;20219;-73
2023/01/09 08:19:42;;;;;;;8.45;7.00;;;5.60;99.90;;;;;;5020829;28;20191;-74
2023/01/09 08:22:08;;;;;;;7.53;6.72;;;5.70;99.90;;;;;;5021116;28;20315;-73
2023/01/09 08:24:35;;;;;;;6.53;5.85;;;5.60;99.90;;;;;;5020287;28;20254;-73
2023/01/09 08:27:01;;;;;;;5.15;4.35;;;5.70;99.90;;;;;;5009437;28;20659;-73
2023/01/09 08:29:29;;;;;;;6.72;5.82;;;5.90;99.90;;;;;;5018719;28;20637;-73
2023/01/09 08:31:55;;;;;;;7.38;6.68;;;5.90;99.90;;;;;;5006294;28;20291;-73
2023/01/09 08:34:21;;;;;;;5.90;5.40;;;6.00;99.90;;;;;;5006907;28;20184;-73
2023/01/09 08:36:46;;;;;;;4.38;3.75;;;6.00;99.90;;;;;;5012464;28;20220;-72
2023/01/09 08:39:12;;;;;;;3.67;3.38;;;6.20;99.90;;;;;;5017437;28;20548;-73
2023/01/09 08:47:06;;;;;;;2.70;2.50;;;6.50;99.90;;;;;;5019546;28;20195;-73
2023/01/09 08:49:33;;;;;;;2.90;1.83;;;6.60;99.90;;;;;;5022391;28;20185;-72
2023/01/09 08:51:59;;;;;;;1.60;1.50;;;6.70;99.90;;;;;;5012300;28;20208;-72
2023/01/09 08:54:24;;;;;;;1.20;1.20;;;6.80;99.90;;;;;;5011060;28;20181;-72
2023/01/09 08:56:50;;;;;;;1.85;1.75;;;6.90;99.90;;;;;;5011026;28;20586;-73
2023/01/09 08:59:16;;;;;;;0.85;0.85;;;7.00;99.90;;;;;;5011169;28;20209;-73
2023/01/09 09:01:41;;;;;;;1.00;0.98;;;7.00;99.90;;;;;;5011355;28;20201;-73
2023/01/09 09:04:07;;;;;;;1.65;1.23;;;7.10;99.90;;;;;;5011918;28;20189;-73
2023/01/09 09:06:33;;;;;;;1.17;1.17;;;7.00;99.90;;;;;;5014964;28;20692;-74
2023/01/09 09:09:02;;;;;;;1.25;1.15;;;7.10;99.90;;;;;;5030543;28;20267;-75
2023/01/09 09:11:32;;;;;;;2.67;1.38;;;7.20;99.90;;;;;;5018301;28;20272;-73
2023/01/09 09:13:58;;;;;;;1.10;1.02;;;7.10;99.90;;;;;;5010198;28;20176;-74
2023/01/09 09:16:24;;;;;;;0.82;0.75;;;7.10;99.90;;;;;;5012533;28;20706;-73
2023/01/09 09:18:50;;;;;;;0.90;0.90;;;7.10;99.90;;;;;;5011245;28;20173;-75
2023/01/09 09:21:16;;;;;;;0.30;0.30;;;7.10;99.90;;;;;;5012564;28;20188;-74
2023/01/09 09:23:43;;;;;;;1.85;0.80;;;7.10;99.90;;;;;;5018046;28;20211;-74
2023/01/09 09:26:08;;;;;;;3.00;0.95;;;7.20;99.90;;;;;;5005836;28;20177;-73
2023/01/09 09:28:34;;;;;;;0.75;0.65;;;7.20;99.90;;;;;;5016567;28;20259;-74
2023/01/09 09:31:00;;;;;;;1.08;0.95;;;7.20;99.90;;;;;;5021788;28;20185;-74
2023/01/09 09:33:25;;;;;;;1.77;0.80;;;7.20;99.90;;;;;;5012866;28;20223;-75
2023/01/09 09:35:51;;;;;;;1.48;1.10;;;7.30;99.90;;;;;;5013945;28;20286;-74
2023/01/09 09:38:17;;;;;;;0.93;0.93;;;7.40;99.90;;;;;;5020135;28;20641;-74
2023/01/09 09:40:55;;;;;;;1.08;1.08;;;7.50;99.90;;;;;;5012815;28;20173;-74
2023/01/09 09:46:35;;;;;;;1.27;1.17;;;7.70;99.90;;;;;;5007873;28;20189;-74
2023/01/09 09:49:27;;;;;;;1.02;1.00;;;7.80;99.90;;;;;;5011911;28;20177;-76
2023/01/09 09:52:04;;;;;;;0.90;0.90;;;8.00;99.90;;;;;;5013868;28;20270;-74
2023/01/09 09:54:51;;;;;;;1.00;0.95;;;8.10;99.90;;;;;;5013933;28;20223;-76
2023/01/09 09:57:24;;;;;;;0.70;0.70;;;8.10;99.90;;;;;;5021952;28;20208;-75
2023/01/09 09:59:51;;;;;;;1.00;0.77;;;8.30;99.90;;;;;;5013869;28;20181;-77
2023/01/09 10:02:24;;;;;;;0.60;0.60;;;8.30;99.90;;;;;;5016755;28;20201;-74
2023/01/09 10:05:06;;;;;;;1.00;1.00;;;8.20;99.90;;;;;;5022391;28;20192;-73
2023/01/09 10:07:41;;;;;;;0.22;0.22;;;8.20;99.90;;;;;;5009263;28;20773;-75
2023/01/09 10:10:18;;;;;;;1.85;1.00;;;8.20;99.90;;;;;;5018352;28;20184;-75
2023/01/09 10:12:54;;;;;;;0.50;0.50;;;8.10;99.90;;;;;;5020174;28;20208;-74
2023/01/09 10:15:32;;;;;;;0.88;0.70;;;8.10;99.90;;;;;;5020388;28;20184;-75
2023/01/09 10:18:14;;;;;;;0.63;0.50;;;8.10;99.90;;;;;;5037057;28;20177;-75
2023/01/09 10:20:55;;;;;;;1.15;0.80;;;8.10;99.90;;;;;;5016811;28;20284;-74
2023/01/09 10:23:36;;;;;;;0.70;0.70;;;8.20;99.90;;;;;;5023083;28;20196;-73
2023/01/09 10:26:12;;;;;;;3.10;1.45;;;8.10;99.90;;;;;;5004600;28;20177;-75
2023/01/09 10:29:02;;;;;;;0.45;0.43;;;8.10;99.90;;;;;;5014571;28;20282;-75
2023/01/09 10:31:36;;;;;;;1.88;0.40;;;8.10;99.90;;;;;;5015339;28;20628;-73
2023/01/09 10:34:23;;;;;;;2.13;0.90;;;8.30;99.90;;;;;;5012049;28;20173;-74
2023/01/09 10:37:07;;;;;;;1.23;1.23;;;8.40;99.90;;;;;;5016992;28;20613;-74
2023/01/09 10:40:00;;;;;;;1.48;0.60;;;8.50;99.90;;;;;;5017775;28;20176;-74
2023/01/09 10:42:32;;;;;;;1.08;1.08;;;8.40;99.90;;;;;;5032264;28;20197;-74
2023/01/09 10:45:21;;;;;;;1.05;1.00;;;8.50;99.90;;;;;;5029939;28;20263;-74
2023/01/09 10:47:47;;;;;;;0.80;0.80;;;8.50;99.90;;;;;;5030213;28;20204;-74
2023/01/09 10:50:29;;;;;;;0.82;0.82;;;8.50;99.90;;;;;;5025889;28;20191;-74
2023/01/09 10:52:56;;;;;;;2.22;0.80;;;8.40;99.90;;;;;;5011097;28;20702;-74
2023/01/09 10:55:31;;;;;;;2.15;0.90;;;8.30;99.90;;;;;;5020603;28;20253;-73
2023/01/09 10:58:00;;;;;;;1.30;0.50;;;8.30;99.90;;;;;;5005105;28;20184;-74
2023/01/09 11:00:27;;;;;;;1.15;0.60;;;8.30;99.90;;;;;;5010984;28;20720;-73
2023/01/09 11:02:53;;;;;;;1.42;0.80;;;8.40;99.90;;;;;;5005464;28;20256;-74
2023/01/09 11:05:25;;;;;;;1.20;1.20;;;8.40;99.90;;;;;;5015500;28;20216;-75
2023/01/09 11:08:21;;;;;;;2.67;0.90;;;8.30;99.90;;;;;;5015901;28;20542;-74
2023/01/09 11:10:52;;;;;;;1.73;0.82;;;8.30;99.90;;;;;;5018491;28;20168;-75
2023/01/09 11:13:20;;;;;;;1.30;0.95;;;8.20;99.90;;;;;;5014804;28;20197;-75
2023/01/09 11:16:03;;;;;;;2.25;1.33;;;8.20;99.90;;;;;;5025118;28;20283;-75
2023/01/09 11:18:29;;;;;;;0.60;0.60;;;8.10;99.90;;;;;;5013741;28;20539;-74
2023/01/09 11:21:10;;;;;;;2.97;2.10;;;8.20;99.90;;;;;;5017923;28;20674;-74
2023/01/09 11:23:35;;;;;;;1.63;0.80;;;8.20;99.90;;;;;;5014621;28;21105;-74
2023/01/09 11:26:01;;;;;;;1.00;1.00;;;8.10;99.90;;;;;;5030706;28;20181;-74
2023/01/09 11:28:27;;;;;;;1.02;0.98;;;8.20;99.90;;;;;;5024962;28;20186;-74
2023/01/09 11:30:58;;;;;;;1.10;1.10;;;8.40;99.90;;;;;;5017600;28;20204;-74
2023/01/09 11:33:29;;;;;;;0.60;0.50;;;8.40;99.90;;;;;;5011098;28;20575;-74
2023/01/09 11:36:04;;;;;;;0.98;0.90;;;8.40;99.90;;;;;;5014983;28;20228;-74
2023/01/09 11:38:43;;;;;;;0.80;0.43;;;8.60;99.90;;;;;;5029281;28;20184;-73
2023/01/09 11:41:17;;;;;;;0.90;0.90;;;8.70;99.90;;;;;;5021007;28;20660;-74
2023/01/09 11:43:45;;;;;;;2.67;1.33;;;8.70;99.90;;;;;;5027001;28;20203;-75
2023/01/09 11:46:30;;;;;;;0.77;0.77;;;8.70;99.90;;;;;;5006019;28;20260;-75
2023/01/09 11:48:57;;;;;;;1.27;0.73;;;8.70;99.90;;;;;;5011274;28;20611;-75
2023/01/09 11:51:26;;;;;;;1.92;1.00;;;8.70;99.90;;;;;;5009445;28;20184;-76
2023/01/09 11:54:19;;;;;;;1.33;1.33;;;8.70;99.90;;;;;;5023736;28;20177;-75
2023/01/09 11:56:46;;;;;;;1.42;1.30;;;8.80;99.90;;;;;;5018181;28;20577;-75
2023/01/09 11:59:21;;;;;;;1.00;0.95;;;8.90;99.90;;;;;;5010136;28;20185;-75
2023/01/09 12:02:25;;;;;;;1.13;1.08;;;9.10;99.90;;;;;;5010827;28;20201;-75
2023/01/09 12:05:14;;;;;;;1.15;1.10;;;9.30;99.90;;;;;;5009982;28;20272;-75
2023/01/09 12:08:11;;;;;;;1.30;1.20;;;9.40;99.90;;;;;;5013126;28;20180;-74
2023/01/09 12:10:39;;;;;;;1.13;0.55;;;9.30;99.90;;;;;;5010835;28;20280;-73
2023/01/09 12:13:38;;;;;;;0.88;0.88;;;9.30;99.90;;;;;;5016372;28;20728;-74
2023/01/09 12:16:19;;;;;;;2.53;0.80;;;9.20;99.90;;;;;;5018083;28;20208;-75
2023/01/09 12:19:02;;;;;;;0.55;0.55;;;9.10;99.90;;;;;;5013628;28;20200;-74
2023/01/09 12:21:35;;;;;;;1.42;0.60;;;8.80;99.90;;;;;;5004979;28;20707;-76
2023/01/09 12:24:22;;;;;;;1.27;1.17;;;8.70;99.90;;;;;;5014388;28;20220;-75
2023/01/09 12:27:05;;;;;;;1.20;1.20;;;8.60;99.90;;;;;;5015187;28;20193;-75
2023/01/09 12:29:37;;;;;;;1.20;1.10;;;8.70;99.90;;;;;;5004211;28;20181;-75
2023/01/09 12:32:02;;;;;;;0.60;0.60;;;8.70;99.90;;;;;;5022312;28;20693;-74
2023/01/09 12:34:51;;;;;;;1.15;1.10;;;8.50;99.90;;;;;;5017995;28;20201;-74
2023/01/09 12:38:02;;;;;;;2.10;1.23;;;8.50;99.90;;;;;;5018181;28;20230;-75
2023/01/09 12:40:34;;;;;;;1.73;1.00;;;8.50;99.90;;;;;;5028665;28;20188;-74
2023/01/09 12:43:21;;;;;;;1.70;0.88;;;8.40;99.90;;;;;;5022048;28;20201;-74
2023/01/09 12:46:19;;;;;;;0.68;0.68;;;8.40;99.90;;;;;;5020103;28;20192;-74
2023/01/09 12:48:57;;;;;;;0.98;0.98;;;8.40;99.90;;;;;;5009925;28;20295;-74
2023/01/09 12:51:46;;;;;;;2.10;0.95;;;8.40;99.90;;;;;;5011508;28;20664;-74
2023/01/09 12:54:33;;;;;;;1.13;0.88;;;8.30;99.90;;;;;;5010199;28;20639;-74
2023/01/09 12:57:20;;;;;;;1.70;1.13;;;8.30;99.90;;;;;;5011372;28;20221;-74
2023/01/09 12:59:51;;;;;;;0.95;0.90;;;8.10;99.90;;;;;;5017978;28;20181;-74
2023/01/09 13:02:26;;;;;;;1.48;1.00;;;8.10;99.90;;;;;;5011278;28;20291;-74
2023/01/09 13:04:58;;;;;;;2.45;1.08;;;8.10;99.90;;;;;;5013787;28;20184;-74
2023/01/09 13:07:39;;;;;;;2.05;1.20;;;8.20;99.90;;;;;;5014913;28;20264;-74
2023/01/09 13:10:21;;;;;;;0.98;0.98;;;8.20;99.90;;;;;;5013743;28;20204;-74
2023/01/09 13:12:49;;;;;;;1.30;1.00;;;8.50;99.90;;;;;;5007437;28;20561;-74
2023/01/09 13:15:26;;;;;;;0.60;0.60;;;8.70;99.90;;;;;;5010982;28;20189;-74